Terminal Aerodrome Forecast
Issued by NWS Binghamton, NY

Home | Current Version | Previous Version | Text Only | Print | Product List | Glossary On
Versions: 1 2 3 4 5 6 7 8 9 10 11 12 13 14 15 16 17 18 19 20 21 22 23 24
000
FTUS41 KBGM 282340
TAFAVP
TAF
KAVP 282340Z 2900/2924 35008KT P6SM SKC
     FM290200 VRB03KT P6SM SKC
      TEMPO 2908/2912 5SM BR
     FM291600 22006KT P6SM FEW080=

USA.gov is the U.S. government's official web portal to all federal, state and local government web resources and services.